createdAt,value
2022-08-07T00:00:41.488Z,447.50
2022-08-07T00:02:36.810Z,503.05
2022-08-07T00:03:08.775Z,575.03
2022-08-07T00:04:11.381Z,103.57
2022-08-07T00:05:20.288Z,631.50
2022-08-07T00:06:29.557Z,595.58
2022-08-07T00:07:40.802Z,697.10
2022-08-07T00:08:44.405Z,717.85
2022-08-07T00:09:59.189Z,802.13
2022-08-07T00:11:13.918Z,802.67
2022-08-07T00:12:22.186Z,802.93
2022-08-07T00:13:30.600Z,803.58
2022-08-07T00:14:35.438Z,708.58
2022-08-07T00:15:46.789Z,703.30
2022-08-07T00:16:53.269Z,814.58
2022-08-07T00:17:57.926Z,815.65
2022-08-07T00:19:05.611Z,814.03
2022-08-07T00:20:09.163Z,815.22
2022-08-07T00:21:57.361Z,799.42
2022-08-07T00:22:51.755Z,813.65
2022-08-07T00:23:56.598Z,802.05
2022-08-07T00:24:58.788Z,779.35
2022-08-07T00:26:18.867Z,627.92
2022-08-07T00:27:29.135Z,518.60
2022-08-07T00:28:56.789Z,358.10
2022-08-07T00:29:59.275Z,364.95
2022-08-07T00:31:06.279Z,288.80
2022-08-07T00:32:14.976Z,137.30
2022-08-07T00:33:20.182Z,78.72
2022-08-07T00:34:22.257Z,202.80
2022-08-07T00:35:30.736Z,73.15
2022-08-07T00:36:35.423Z,99.13
2022-08-07T00:37:48.132Z,48.33
2022-08-07T00:38:55.685Z,1.80
2022-08-07T00:39:59.913Z,1.73
2022-08-07T00:41:05.138Z,1.48
2022-08-07T00:42:12.241Z,59.38
2022-08-07T00:44:00.229Z,37.45
2022-08-07T00:44:42.105Z,5.25
2022-08-07T00:45:46.616Z,0.90
2022-08-07T00:46:51.550Z,28.05
2022-08-07T00:48:07.730Z,1.00
2022-08-07T00:49:24.959Z,1.35
2022-08-07T00:50:50.694Z,223.20
2022-08-07T00:51:58.448Z,2.83
2022-08-07T00:53:01.037Z,1.30
2022-08-07T00:54:08.985Z,2.10
2022-08-07T00:55:17.236Z,1.42
2022-08-07T00:56:33.799Z,1.40
2022-08-07T00:57:36.664Z,1.30
2022-08-07T00:58:46.973Z,1.30
2022-08-07T00:59:52.050Z,1.20
2022-08-07T01:00:56.834Z,0.90
2022-08-07T01:01:59.259Z,0.85
2022-08-07T01:03:04.136Z,1.15
2022-08-07T01:04:11.433Z,0.80
2022-08-07T01:05:27.805Z,1.00
2022-08-07T01:06:34.548Z,1.30
2022-08-07T01:07:38.019Z,0.80
2022-08-07T01:08:52.094Z,1.25
2022-08-07T01:10:06.668Z,1.40
2022-08-07T01:12:24.113Z,1.05
2022-08-07T01:12:43.963Z,1.50
2022-08-07T01:13:59.452Z,1.00
2022-08-07T01:15:03.927Z,1.00
2022-08-07T01:16:10.186Z,1.30
2022-08-07T01:17:13.558Z,1.30
2022-08-07T01:18:18.819Z,1.40
2022-08-07T01:19:22.878Z,1.00
2022-08-07T01:20:34.512Z,1.50
2022-08-07T01:21:49.326Z,1.20
2022-08-07T01:23:12.276Z,0.90
2022-08-07T01:24:21.247Z,1.10
2022-08-07T01:25:53.830Z,1.25
2022-08-07T01:26:53.793Z,1.25
2022-08-07T01:27:56.730Z,1.27
2022-08-07T01:29:04.904Z,1.67
2022-08-07T01:30:09.519Z,1.20
2022-08-07T01:31:17.919Z,1.35
2022-08-07T01:32:22.473Z,1.40
2022-08-07T01:33:30.184Z,1.30
2022-08-07T01:34:53.630Z,1.13
2022-08-07T01:36:05.917Z,1.10
2022-08-07T01:37:17.368Z,1.60
2022-08-07T01:38:24.926Z,1.38
2022-08-07T01:39:40.403Z,1.23
2022-08-07T01:40:44.439Z,1.80
2022-08-07T01:42:07.220Z,1.27
2022-08-07T01:43:18.856Z,2.30
2022-08-07T01:44:21.546Z,1.50
2022-08-07T01:45:37.303Z,1.52
2022-08-07T01:46:42.491Z,1.15
2022-08-07T01:48:19.636Z,1.38
2022-08-07T01:49:13.963Z,1.15
2022-08-07T01:50:22.832Z,2.33
2022-08-07T01:52:02.542Z,2.45
2022-08-07T01:53:08.681Z,55.55
2022-08-07T01:54:32.582Z,517.20
2022-08-07T01:55:42.368Z,797.70
2022-08-07T01:56:49.740Z,796.78
2022-08-07T01:58:05.832Z,689.97
2022-08-07T01:59:30.804Z,799.63
2022-08-07T02:00:45.390Z,809.72
2022-08-07T02:02:02.779Z,810.63
2022-08-07T02:03:21.177Z,797.72
2022-08-07T02:04:32.667Z,808.15
2022-08-07T02:05:43.241Z,808.42
2022-08-07T02:06:52.157Z,773.53
2022-08-07T02:08:00.565Z,717.30
2022-08-07T02:09:11.650Z,691.53
2022-08-07T02:10:36.535Z,675.22
2022-08-07T02:12:02.624Z,610.10
2022-08-07T02:14:14.563Z,515.30
2022-08-07T02:15:40.386Z,491.88
2022-08-07T02:16:43.117Z,426.25
2022-08-07T02:17:51.852Z,406.00
2022-08-07T02:18:56.143Z,403.05
2022-08-07T02:20:09.939Z,359.00
2022-08-07T02:21:25.254Z,309.08
2022-08-07T02:22:30.293Z,313.50
2022-08-07T02:23:37.841Z,310.58
2022-08-07T02:24:44.976Z,277.63
2022-08-07T02:26:31.508Z,249.75
2022-08-07T02:27:14.176Z,259.17
2022-08-07T02:28:25.360Z,255.88
2022-08-07T02:29:30.721Z,241.45
2022-08-07T02:30:38.328Z,225.02
2022-08-07T02:31:41.358Z,30.70
2022-08-07T02:33:07.273Z,209.85
2022-08-07T02:34:11.613Z,189.50
2022-08-07T02:36:28.274Z,218.33
2022-08-07T02:36:46.177Z,10.75
2022-08-07T02:37:52.483Z,165.07
2022-08-07T02:38:57.273Z,8.75
2022-08-07T02:40:30.165Z,118.88
2022-08-07T02:41:33.370Z,113.13
2022-08-07T02:42:42.877Z,114.93
2022-08-07T02:43:48.926Z,128.48
2022-08-07T02:44:55.536Z,28.15
